Time;durP1;ratioP1;P1;durP2;ratioP2;P2;SDS_P1;SDS_P2;PMS_P1;PMS_P2;Temp;Humidity;BMP_temperature;BMP_pressure;BME280_temperature;BME280_humidity;BME280_pressure;Samples;Min_cycle;Max_cycle;Signal;HPM_P1;HPM_P2
2021/09/01 00:02:16;;;;;;;5.15;4.75;;;;;;;11.98;81.95;100738.69;10383948;28;20045;-76
2021/09/01 00:07:18;;;;;;;5.20;4.78;;;;;;;11.83;82.82;100737.34;10381987;28;20042;-75
2021/09/01 00:12:20;;;;;;;5.47;4.97;;;;;;;11.78;83.78;100743.59;10381649;28;20415;-74
2021/09/01 00:17:21;;;;;;;5.43;5.03;;;;;;;11.70;83.58;100735.03;10382391;28;20042;-75
2021/09/01 00:22:23;;;;;;;5.00;4.60;;;;;;;11.58;84.19;100744.09;10381356;28;20050;-75
2021/09/01 00:27:25;;;;;;;5.25;4.85;;;;;;;11.53;84.66;100754.72;10364220;28;20096;-75
2021/09/01 00:32:26;;;;;;;5.60;5.10;;;;;;;11.49;84.78;100755.69;10380892;28;20054;-75
2021/09/01 00:37:28;;;;;;;5.43;4.93;;;;;;;11.44;85.43;100762.84;10379957;28;20050;-76
2021/09/01 00:42:29;;;;;;;5.82;5.43;;;;;;;11.43;85.54;100765.53;10363641;28;20458;-76
2021/09/01 00:47:31;;;;;;;5.13;4.65;;;;;;;11.30;85.55;100765.81;10382053;28;20668;-75
2021/09/01 00:52:35;;;;;;;5.75;5.25;;;;;;;11.27;85.61;100755.34;10382908;28;20065;-75
2021/09/01 00:57:40;;;;;;;6.15;5.55;;;;;;;11.26;85.95;100768.53;10381035;28;20045;-75
2021/09/01 01:02:42;;;;;;;5.75;5.35;;;;;;;11.23;86.22;100763.34;10363699;28;20053;-75
2021/09/01 01:07:43;;;;;;;4.97;4.57;;;;;;;11.26;85.40;100760.66;10380868;28;20102;-74
2021/09/01 01:12:45;;;;;;;5.82;5.22;;;;;;;11.62;83.51;100756.28;10362095;28;20121;-74
2021/09/01 01:17:47;;;;;;;5.28;4.78;;;;;;;11.67;83.20;100766.69;10361858;28;20107;-75
2021/09/01 01:22:49;;;;;;;5.45;4.97;;;;;;;11.85;82.47;100759.22;10380050;28;20562;-75
2021/09/01 01:27:50;;;;;;;4.78;4.28;;;;;;;11.91;81.45;100755.59;10381006;28;20161;-74
2021/09/01 01:32:53;;;;;;;5.18;4.78;;;;;;;11.80;82.41;100760.22;10362702;28;20415;-75
2021/09/01 01:37:56;;;;;;;5.95;5.35;;;;;;;11.59;83.02;100754.56;10380733;28;20100;-75
2021/09/01 01:42:59;;;;;;;6.28;5.30;;;;;;;11.41;84.82;100764.69;10379738;28;20054;-75
2021/09/01 01:48:01;;;;;;;5.03;4.53;;;;;;;11.20;85.69;100772.19;10379675;28;20419;-75
2021/09/01 01:53:04;;;;;;;5.70;5.20;;;;;;;11.02;86.57;100775.19;10361996;28;20054;-75
2021/09/01 01:58:05;;;;;;;5.53;5.03;;;;;;;10.85;87.89;100780.84;10361390;28;20046;-75
2021/09/01 02:03:07;;;;;;;5.97;5.45;;;;;;;10.80;88.36;100777.41;10377912;28;20042;-75
2021/09/01 02:08:09;;;;;;;6.32;5.82;;;;;;;10.95;88.07;100782.38;10379158;28;20043;-75
2021/09/01 02:13:10;;;;;;;5.63;5.22;;;;;;;10.78;89.08;100781.88;10377730;28;20057;-75
2021/09/01 02:18:12;;;;;;;6.85;6.35;;;;;;;10.54;89.98;100783.25;10378694;28;20081;-76
2021/09/01 02:23:14;;;;;;;6.38;5.88;;;;;;;10.47;90.08;100787.72;10376947;28;20416;-76
2021/09/01 02:28:15;;;;;;;5.90;5.40;;;;;;;10.47;90.42;100785.09;10377726;28;20484;-75
2021/09/01 02:33:17;;;;;;;6.07;5.57;;;;;;;10.49;90.05;100785.06;10376573;28;20504;-75
2021/09/01 02:38:18;;;;;;;5.70;5.20;;;;;;;10.50;89.94;100781.56;10377749;28;20041;-75
2021/09/01 02:43:20;;;;;;;6.30;5.75;;;;;;;10.56;89.99;100779.66;10377550;28;20058;-75
2021/09/01 02:48:21;;;;;;;7.47;6.32;;;;;;;10.40;90.62;100783.47;10378494;28;20037;-75
2021/09/01 02:53:23;;;;;;;6.43;5.93;;;;;;;10.40;90.82;100782.59;10360430;28;20053;-76
2021/09/01 02:58:25;;;;;;;6.60;6.05;;;;;;;10.31;90.68;100779.28;10360713;28;20048;-75
2021/09/01 03:03:26;;;;;;;7.35;6.75;;;;;;;10.15;91.72;100774.31;10385781;28;20064;-75
2021/09/01 03:08:28;;;;;;;7.05;6.50;;;;;;;10.08;92.60;100777.03;10385434;28;20072;-75
2021/09/01 03:13:30;;;;;;;8.30;7.60;;;;;;;10.22;91.98;100779.41;10385110;28;20054;-74
2021/09/01 03:18:31;;;;;;;7.78;6.32;;;;;;;10.23;91.61;100780.28;10384793;28;20045;-75
2021/09/01 03:23:33;;;;;;;7.20;6.60;;;;;;;10.23;91.75;100778.53;10383839;28;20084;-75
2021/09/01 03:28:34;;;;;;;6.60;6.07;;;;;;;10.17;92.03;100793.53;10365860;28;20046;-74
2021/09/01 03:33:36;;;;;;;7.28;6.68;;;;;;;10.11;91.99;100797.13;10383057;28;20049;-75
2021/09/01 03:38:37;;;;;;;9.07;6.80;;;;;;;10.16;91.78;100794.41;10367404;28;20050;-75
2021/09/01 03:43:39;;;;;;;9.05;7.05;;;;;;;10.11;92.03;100807.63;10366724;28;20077;-75
2021/09/01 03:48:41;;;;;;;7.28;6.72;;;;;;;10.08;92.18;100812.94;10365591;28;20080;-75
2021/09/01 03:53:42;;;;;;;8.88;7.40;;;;;;;10.06;92.21;100809.47;10382627;28;20056;-75
2021/09/01 03:58:44;;;;;;;8.48;7.78;;;;;;;10.35;91.29;100811.59;10382910;28;20454;-74
2021/09/01 04:03:46;;;;;;;6.63;6.13;;;;;;;10.28;91.02;100804.75;10365481;28;20056;-75
2021/09/01 04:08:47;;;;;;;7.13;6.57;;;;;;;10.16;91.81;100805.78;10380574;28;20535;-75
2021/09/01 04:13:49;;;;;;;11.73;6.60;;;;;;;10.14;92.01;100812.84;10364064;28;20046;-75
2021/09/01 04:18:53;;;;;;;8.00;7.30;;;;;;;10.43;90.48;100814.97;10384817;28;20049;-75
2021/09/01 04:23:56;;;;;;;9.18;8.48;;;;;;;10.51;91.16;100828.84;10369455;28;20033;-74
2021/09/01 04:29:00;;;;;;;7.28;6.68;;;;;;;10.59;90.57;100826.94;10389981;28;20400;-75
2021/09/01 04:34:03;;;;;;;8.73;8.02;;;;;;;10.67;90.75;100829.44;10387071;28;20133;-75
2021/09/01 04:39:05;;;;;;;8.85;8.15;;;;;;;10.67;90.93;100815.38;10369592;28;20046;-76
2021/09/01 04:44:06;;;;;;;9.75;8.95;;;;;;;10.97;90.53;100833.19;10386587;28;20045;-75
2021/09/01 04:49:08;;;;;;;9.30;8.60;;;;;;;11.30;88.34;100828.97;10384137;28;20073;-75
2021/09/01 04:54:10;;;;;;;10.43;9.45;;;;;;;11.09;90.11;100832.94;10385145;28;20044;-75
2021/09/01 04:59:12;;;;;;;9.68;8.95;;;;;;;11.12;90.58;100834.63;10386893;28;20038;-75
2021/09/01 05:04:15;;;;;;;8.90;8.30;;;;;;;11.13;90.82;100846.03;10384410;28;20570;-75
2021/09/01 05:09:16;;;;;;;11.35;10.35;;;;;;;11.03;91.68;100848.84;10366620;28;20046;-75
2021/09/01 05:14:18;;;;;;;11.55;9.93;;;;;;;11.45;90.67;100851.44;10384997;28;20120;-75
2021/09/01 05:19:20;;;;;;;11.55;10.63;;;;;;;11.50;89.44;100840.81;10383155;28;20064;-75
2021/09/01 05:24:40;;;;;;;12.55;11.55;;;;;;;11.76;88.95;100842.84;10381340;28;20388;-74
2021/09/01 05:29:44;;;;;;;12.90;11.90;;;;;;;11.87;88.68;100832.97;10382701;28;20034;-74
2021/09/01 05:34:48;;;;;;;11.52;10.50;;;;;;;12.23;87.31;100830.31;10381494;28;20422;-73
2021/09/01 05:39:52;;;;;;;13.23;12.07;;;;;;;12.38;86.47;100829.91;10383606;28;20041;-72
2021/09/01 05:44:56;;;;;;;12.15;11.18;;;;;;;12.62;85.79;100828.38;10383510;28;20046;-73
2021/09/01 05:49:59;;;;;;;19.73;11.77;;;;;;;12.62;85.76;100823.09;10380991;28;20045;-73
2021/09/01 05:55:09;;;;;;;12.40;11.50;;;;;;;12.63;86.04;100819.56;10366388;28;20057;-74
2021/09/01 06:00:16;;;;;;;12.30;11.40;;;;;;;12.96;85.74;100828.28;10380396;28;20046;-73
2021/09/01 06:05:22;;;;;;;12.00;10.80;;;;;;;13.59;82.58;100822.00;10363576;28;20069;-73
2021/09/01 06:10:31;;;;;;;11.33;10.33;;;;;;;14.27;79.53;100831.22;10381013;28;20073;-74
2021/09/01 06:15:35;;;;;;;11.38;10.57;;;;;;;14.61;77.06;100811.56;10380304;28;20088;-74
2021/09/01 06:20:38;;;;;;;11.13;10.23;;;;;;;14.77;75.58;100818.00;10382980;28;20042;-74
2021/09/01 06:25:40;;;;;;;12.60;11.68;;;;;;;14.61;76.64;100830.94;10381579;28;20400;-73
2021/09/01 06:30:42;;;;;;;12.02;11.05;;;;;;;14.46;78.17;100822.63;10361740;28;20554;-75
2021/09/01 06:35:43;;;;;;;11.13;10.30;;;;;;;14.34;79.92;100843.31;10385189;28;20064;-74
2021/09/01 06:40:45;;;;;;;12.23;11.25;;;;;;;14.40;79.18;100834.31;10372765;28;20153;-73
2021/09/01 06:45:48;;;;;;;11.38;10.50;;;;;;;14.54;80.14;100837.34;10370848;28;20451;-73
2021/09/01 06:50:49;;;;;;;12.68;11.50;;;;;;;14.62;79.79;100851.19;10385748;28;20463;-73
2021/09/01 06:55:51;;;;;;;11.02;10.23;;;;;;;14.66;79.45;100862.53;10386167;28;20053;-73
2021/09/01 07:00:53;;;;;;;11.15;10.15;;;;;;;15.01;77.95;100863.91;10386267;28;20150;-74
2021/09/01 07:05:54;;;;;;;11.20;10.40;;;;;;;15.15;77.40;100868.69;10386625;28;20483;-73
2021/09/01 07:10:56;;;;;;;11.90;10.63;;;;;;;15.37;76.48;100874.03;10367641;28;20141;-73
2021/09/01 07:15:58;;;;;;;11.00;9.98;;;;;;;15.43;78.54;100881.75;10367942;28;20112;-72
2021/09/01 07:21:00;;;;;;;12.30;11.32;;;;;;;15.20;78.66;100879.97;10387520;28;20049;-74
2021/09/01 07:26:02;;;;;;;12.88;11.82;;;;;;;14.99;79.35;100910.72;10386454;28;20105;-72
2021/09/01 07:31:09;;;;;;;13.50;12.40;;;;;;;15.10;79.19;100919.16;10384037;28;20064;-73
2021/09/01 07:36:10;;;;;;;;;;;;;;;14.90;79.64;100926.94;10412511;28;20037;-73
2021/09/01 07:41:12;;;;;;;16.02;14.35;;;;;;;15.06;77.88;100937.88;10406342;28;19921;-72
2021/09/01 07:46:16;;;;;;;15.00;13.80;;;;;;;14.95;79.25;100940.03;10423828;28;20048;-72
2021/09/01 07:51:18;;;;;;;15.40;14.20;;;;;;;14.84;81.27;100940.41;10424777;28;20095;-73
2021/09/01 07:56:20;;;;;;;17.67;16.17;;;;;;;14.75;81.42;100946.03;10424348;28;20080;-73
2021/09/01 08:01:21;;;;;;;14.18;13.07;;;;;;;15.06;80.47;100961.72;10424046;28;20054;-73
2021/09/01 08:06:23;;;;;;;14.80;13.50;;;;;;;15.17;79.82;100964.81;10424258;28;20143;-74
2021/09/01 08:11:26;;;;;;;15.18;13.75;;;;;;;15.17;79.64;100966.59;10416378;28;20037;-73
2021/09/01 08:16:28;;;;;;;14.13;12.55;;;;;;;15.37;78.21;100967.63;10410984;28;20081;-74
2021/09/01 08:21:29;;;;;;;14.25;12.98;;;;;;;15.35;77.35;100984.47;10406405;28;20128;-74
2021/09/01 08:26:31;;;;;;;13.88;12.57;;;;;;;15.22;77.53;100989.34;10383424;28;20491;-74
2021/09/01 08:31:33;;;;;;;12.38;11.40;;;;;;;15.33;78.31;100994.28;10380156;28;20049;-74
2021/09/01 08:36:34;;;;;;;12.93;11.75;;;;;;;15.46;77.49;101002.66;10363617;28;20042;-74
2021/09/01 08:41:37;;;;;;;12.85;11.75;;;;;;;15.33;77.53;101010.16;10363755;28;20119;-73
2021/09/01 08:46:42;;;;;;;13.50;12.15;;;;;;;15.54;76.55;101004.09;10363543;28;20073;-75
2021/09/01 08:51:47;;;;;;;14.13;13.00;;;;;;;15.57;76.44;101009.25;10381058;28;20049;-75
2021/09/01 08:56:49;;;;;;;13.50;12.50;;;;;;;15.79;76.43;101017.31;10379861;28;20467;-74
2021/09/01 09:01:54;;;;;;;14.65;13.50;;;;;;;15.88;75.78;101003.72;10381514;28;20046;-73
2021/09/01 09:07:03;;;;;;;14.15;13.15;;;;;;;16.20;74.81;101011.34;10380880;28;20100;-74
2021/09/01 09:12:07;;;;;;;14.93;13.80;;;;;;;16.56;73.45;100996.59;10380744;28;20050;-73
2021/09/01 09:17:20;;;;;;;14.70;13.30;;;;;;;16.48;73.52;101000.50;10380132;28;20413;-73
2021/09/01 09:22:23;;;;;;;15.20;13.90;;;;;;;16.63;72.65;100987.44;10362280;28;20045;-74
2021/09/01 09:27:39;;;;;;;15.57;14.18;;;;;;;16.72;73.06;100995.94;10379350;28;20045;-74
2021/09/01 09:32:54;;;;;;;15.30;14.00;;;;;;;16.96;72.95;100983.47;10378873;28;20054;-73
2021/09/01 09:38:04;;;;;;;14.43;13.25;;;;;;;17.41;70.82;100985.91;10361340;28;20554;-73
2021/09/01 09:43:17;;;;;;;13.35;12.30;;;;;;;17.68;71.37;100990.88;10379957;28;20060;-74
2021/09/01 09:48:27;;;;;;;13.50;11.43;;;;;;;17.99;69.08;100985.88;10378076;28;20041;-74
2021/09/01 09:53:36;;;;;;;12.15;11.25;;;;;;;17.74;71.08;100985.31;10379315;28;20050;-74
2021/09/01 09:58:43;;;;;;;13.63;12.50;;;;;;;17.80;69.68;100998.34;10379528;28;20073;-74
2021/09/01 10:03:45;;;;;;;11.93;11.02;;;;;;;17.88;69.28;100988.19;10379258;28;20046;-74
2021/09/01 10:08:49;;;;;;;11.02;10.07;;;;;;;18.06;67.69;101000.66;10377565;28;20061;-74
2021/09/01 10:13:53;;;;;;;10.32;9.27;;;;;;;17.98;69.23;100988.63;10377837;28;20076;-73
2021/09/01 10:19:06;;;;;;;10.00;9.20;;;;;;;17.97;67.25;100990.41;10378972;28;20121;-73
2021/09/01 10:24:41;;;;;;;9.25;8.45;;;;;;;17.78;69.12;100987.75;10378949;28;20404;-74
2021/09/01 10:29:50;;;;;;;9.90;9.10;;;;;;;17.73;69.52;100994.19;10293750;28;20086;-75
2021/09/01 10:35:19;;;;;;;10.45;9.65;;;;;;;17.94;68.84;100981.72;10293784;28;20059;-74
2021/09/01 10:40:21;;;;;;;10.07;9.10;;;;;;;18.19;67.91;100982.25;10293591;28;20061;-74
2021/09/01 10:45:43;;;;;;;10.40;9.60;;;;;;;18.32;67.92;100982.53;10293171;28;20063;-73
2021/09/01 10:50:49;;;;;;;12.07;10.85;;;;;;;18.29;67.58;100980.03;10296186;28;20134;-73
2021/09/01 10:55:58;;;;;;;9.30;8.60;;;;;;;18.54;65.83;100985.84;10292773;28;20046;-74
2021/09/01 11:01:19;;;;;;;8.90;8.13;;;;;;;18.95;65.49;100974.97;10294138;28;20119;-74
2021/09/01 11:06:23;;;;;;;10.70;9.50;;;;;;;19.13;66.19;100967.81;10364080;28;20069;-73
2021/09/01 11:11:43;;;;;;;10.65;9.75;;;;;;;19.08;65.81;100960.06;10377647;28;20045;-73
2021/09/01 11:16:50;;;;;;;12.00;10.90;;;;;;;19.08;63.76;100961.84;10376409;28;20050;-74
2021/09/01 11:21:52;;;;;;;11.95;10.73;;;;;;;19.27;64.31;100967.09;10379963;28;20045;-73
2021/09/01 11:26:56;;;;;;;10.90;9.90;;;;;;;19.81;63.00;100971.25;10384613;28;20092;-71
2021/09/01 11:31:58;;;;;;;10.65;9.60;;;;;;;20.40;59.53;100968.81;10402518;23;20478;-69
2021/09/01 11:36:59;;;;;;;10.15;9.35;;;;;;;19.72;62.11;100973.56;10420613;28;20376;-70
2021/09/01 11:42:04;;;;;;;12.02;11.02;;;;;;;19.63;62.27;100973.13;10421915;28;20417;-70
2021/09/01 11:47:13;;;;;;;11.95;11.05;;;;;;;19.57;61.67;100973.44;10420220;28;20441;-70
2021/09/01 11:52:15;;;;;;;11.27;10.20;;;;;;;20.11;60.02;100982.03;10420690;28;20050;-70
2021/09/01 11:57:24;;;;;;;10.65;9.65;;;;;;;19.84;60.50;100983.59;10420120;28;20049;-69
2021/09/01 12:02:30;;;;;;;9.55;8.75;;;;;;;19.40;61.86;100977.00;10419683;28;20099;-70
2021/09/01 12:07:35;;;;;;;11.13;9.93;;;;;;;19.76;61.24;100976.00;10419012;28;20037;-69
2021/09/01 12:12:39;;;;;;;11.67;10.57;;;;;;;19.96;63.42;100984.69;10418459;28;20100;-71
2021/09/01 12:17:44;;;;;;;10.68;9.85;;;;;;;19.75;62.91;100974.28;10418786;28;20450;-70
2021/09/01 12:22:45;;;;;;;10.90;9.80;;;;;;;19.48;61.80;100973.94;10418910;28;20049;-70
2021/09/01 12:28:10;;;;;;;10.18;9.38;;;;;;;19.50;62.87;100972.03;10418484;28;20108;-70
2021/09/01 12:33:17;;;;;;;8.98;8.27;;;;;;;19.67;63.92;100964.97;10418628;28;20053;-70
2021/09/01 12:38:24;;;;;;;12.30;11.40;;;;;;;19.45;62.91;100975.91;10401269;28;20052;-70
2021/09/01 12:43:26;;;;;;;11.15;10.32;;;;;;;19.58;63.67;100975.16;10418716;28;20103;-69
2021/09/01 12:48:35;;;;;;;11.32;10.07;;;;;;;19.84;62.40;100983.59;10417999;28;20041;-71
2021/09/01 12:53:37;;;;;;;9.73;8.93;;;;;;;19.93;61.09;100976.88;10418398;28;20056;-70
2021/09/01 12:58:38;;;;;;;10.80;10.00;;;;;;;20.28;60.57;100969.53;10417980;28;20041;-69
2021/09/01 13:03:40;;;;;;;10.93;10.02;;;;;;;20.38;59.33;100962.72;10417494;28;20045;-70
2021/09/01 13:08:41;;;;;;;11.05;10.15;;;;;;;20.35;61.40;100963.75;10417702;28;20137;-70
2021/09/01 13:13:43;;;;;;;10.40;9.60;;;;;;;20.49;61.13;100960.31;10399198;28;20053;-69
2021/09/01 13:18:46;;;;;;;10.00;9.27;;;;;;;20.47;60.25;100951.50;10417595;28;20128;-70
2021/09/01 13:23:47;;;;;;;10.32;9.52;;;;;;;20.47;58.19;100951.50;10417101;28;20041;-70
2021/09/01 13:28:49;;;;;;;11.02;9.90;;;;;;;20.53;59.84;100947.63;10399965;28;20037;-70
2021/09/01 13:33:51;;;;;;;10.50;9.60;;;;;;;20.54;59.75;100946.66;10416451;28;20128;-70
2021/09/01 13:38:53;;;;;;;9.75;8.95;;;;;;;20.67;61.48;100939.66;10417386;28;20046;-70
2021/09/01 13:43:56;;;;;;;10.20;9.40;;;;;;;20.90;60.23;100935.63;10415847;28;20049;-71
2021/09/01 13:48:59;;;;;;;10.98;10.07;;;;;;;20.59;59.17;100939.28;10397989;28;20041;-70
2021/09/01 13:54:02;;;;;;;9.50;8.75;;;;;;;20.30;59.07;100928.44;10416148;28;20057;-70
2021/09/01 13:59:05;;;;;;;11.00;9.95;;;;;;;20.24;60.11;100933.28;10416121;28;20033;-69
2021/09/01 14:04:07;;;;;;;9.40;8.60;;;;;;;20.29;59.31;100937.41;10415703;28;20053;-70
2021/09/01 14:09:08;;;;;;;9.13;8.43;;;;;;;20.34;59.39;100931.81;10415325;28;20128;-70
2021/09/01 14:14:11;;;;;;;10.38;9.30;;;;;;;20.66;58.98;100936.13;10415373;28;20055;-70
2021/09/01 14:19:12;;;;;;;9.73;8.93;;;;;;;20.63;58.89;100925.66;10397948;28;20054;-70
2021/09/01 14:24:16;;;;;;;9.73;8.93;;;;;;;20.86;58.37;100926.94;10414880;28;20514;-69
2021/09/01 14:29:18;;;;;;;10.80;9.75;;;;;;;20.55;58.28;100925.25;10415122;28;20053;-71
2021/09/01 14:34:19;;;;;;;8.73;8.07;;;;;;;20.51;58.58;100909.47;10414802;28;20041;-70
2021/09/01 14:39:21;;;;;;;10.98;8.70;;;;;;;20.34;58.40;100915.78;10415771;28;20167;-69
2021/09/01 14:44:22;;;;;;;8.98;8.27;;;;;;;20.38;60.17;100906.63;10414426;28;20075;-69
2021/09/01 14:49:24;;;;;;;8.80;8.10;;;;;;;20.04;60.32;100897.06;10414154;28;20099;-69
2021/09/01 14:55:02;;;;;;;;;;;;;;;;;;;;;
2021/09/01 15:00:07;;;;;;;7.85;7.25;;;;;;;20.24;59.60;100904.78;10327967;28;20144;-70
2021/09/01 15:05:11;;;;;;;8.30;7.68;;;;;;;20.56;58.68;100886.03;10421353;28;20033;-69
2021/09/01 15:10:13;;;;;;;8.07;7.38;;;;;;;20.50;59.86;100897.09;10420895;28;20045;-69
2021/09/01 15:15:15;;;;;;;7.90;7.10;;;;;;;20.35;59.94;100888.13;10422204;28;20053;-69
2021/09/01 15:20:18;;;;;;;7.57;6.88;;;;;;;20.66;58.19;100881.84;10423606;28;20049;-70
2021/09/01 15:25:20;;;;;;;8.88;7.97;;;;;;;20.49;60.43;100880.19;10421203;28;20052;-70
2021/09/01 15:30:23;;;;;;;6.88;6.20;;;;;;;20.24;60.76;100871.88;10421487;28;20144;-70
2021/09/01 15:35:25;;;;;;;7.75;7.05;;;;;;;20.59;59.36;100867.16;10431059;28;20048;-69
2021/09/01 15:40:28;;;;;;;7.22;6.63;;;;;;;20.54;59.21;100863.88;10431202;28;20148;-69
2021/09/01 15:45:32;;;;;;;7.05;6.45;;;;;;;20.21;60.51;100862.25;10458654;28;20041;-71
2021/09/01 15:50:34;;;;;;;7.13;6.05;;;;;;;20.32;59.03;100851.81;10448975;28;20041;-69
2021/09/01 15:55:41;;;;;;;7.22;6.65;;;;;;;20.10;60.46;100854.88;10420453;28;20049;-69
2021/09/01 16:00:45;;;;;;;7.07;6.38;;;;;;;19.94;60.78;100853.19;10420720;28;20044;-70
2021/09/01 16:05:48;;;;;;;6.13;5.43;;;;;;;19.81;61.88;100848.53;10420158;28;20045;-69
2021/09/01 16:10:49;;;;;;;6.57;6.07;;;;;;;19.84;62.09;100847.50;10420593;28;20398;-70
2021/09/01 16:15:58;;;;;;;6.07;5.47;;;;;;;19.88;61.74;100860.59;10420141;28;20080;-68
2021/09/01 16:21:07;;;;;;;4.63;4.18;;;;;;;19.55;61.22;100867.78;10420114;28;20041;-70
2021/09/01 16:26:09;;;;;;;6.20;4.70;;;;;;;19.57;61.44;100858.75;10420837;28;20049;-69
2021/09/01 16:31:13;;;;;;;5.90;5.10;;;;;;;19.39;62.58;100857.13;10370541;28;20057;-69
2021/09/01 16:36:16;;;;;;;5.93;4.32;;;;;;;19.38;61.63;100863.38;10420911;28;20055;-69
2021/09/01 16:41:26;;;;;;;5.70;4.55;;;;;;;19.20;62.85;100875.91;10419109;28;20049;-69
2021/09/01 16:46:28;;;;;;;4.97;4.40;;;;;;;19.11;63.28;100865.75;10418429;28;20088;-69
2021/09/01 16:51:34;;;;;;;4.90;4.32;;;;;;;19.05;64.17;100872.28;10419156;28;20041;-69
2021/09/01 16:56:50;;;;;;;4.05;3.72;;;;;;;18.93;64.57;100867.59;10418153;28;20099;-69
2021/09/01 17:01:54;;;;;;;4.97;4.43;;;;;;;18.86;65.36;100880.41;10419302;28;20087;-70
2021/09/01 17:06:59;;;;;;;6.38;5.28;;;;;;;18.98;64.43;100878.88;10400709;28;20075;-70
2021/09/01 17:12:02;;;;;;;5.57;5.10;;;;;;;18.76;65.67;100876.47;10403704;28;20042;-70
2021/09/01 17:17:06;;;;;;;5.35;4.78;;;;;;;18.75;65.61;100873.91;10403612;28;20079;-70
2021/09/01 17:22:08;;;;;;;4.90;4.45;;;;;;;18.84;65.84;100878.75;10403798;28;20132;-70
2021/09/01 17:27:14;;;;;;;5.47;4.97;;;;;;;18.88;65.62;100883.81;10422363;28;20045;-71
2021/09/01 17:32:18;;;;;;;5.32;4.82;;;;;;;18.38;68.78;100883.75;10440911;22;20084;-76
2021/09/01 17:37:20;;;;;;;5.22;4.72;;;;;;;18.34;68.73;100892.84;10464216;28;20480;-76
2021/09/01 17:42:22;;;;;;;6.53;5.93;;;;;;;18.32;69.12;100897.34;10446848;28;20049;-75
2021/09/01 17:47:28;;;;;;;7.10;6.50;;;;;;;18.24;70.18;100908.41;10465127;28;20130;-76
2021/09/01 17:52:29;;;;;;;8.67;7.97;;;;;;;18.20;70.36;100914.81;10465562;28;20045;-76
2021/09/01 17:57:31;;;;;;;9.20;8.30;;;;;;;18.09;71.15;100918.00;10446645;28;20041;-76
2021/09/01 18:02:34;;;;;;;9.70;9.00;;;;;;;17.89;72.37;100923.44;10446547;28;20037;-77
2021/09/01 18:07:38;;;;;;;9.70;8.80;;;;;;;17.75;72.92;100940.06;10446793;28;20080;-77
2021/09/01 18:12:40;;;;;;;10.18;9.38;;;;;;;17.56;73.88;100949.75;10464171;28;20041;-77
2021/09/01 18:17:44;;;;;;;9.88;9.07;;;;;;;17.40;74.67;100955.81;10465294;28;20048;-77
2021/09/01 18:22:46;;;;;;;10.48;9.68;;;;;;;17.30;75.71;100959.78;10465827;28;20053;-77
2021/09/01 18:27:48;;;;;;;9.95;9.25;;;;;;;17.41;75.35;100964.63;10446496;28;20051;-76
2021/09/01 18:32:52;;;;;;;10.25;9.45;;;;;;;17.21;75.71;100962.84;10452468;28;20087;-76
2021/09/01 18:37:54;;;;;;;14.52;9.50;;;;;;;17.32;75.50;100965.06;10473001;28;20094;-76
2021/09/01 18:42:58;;;;;;;10.43;9.65;;;;;;;17.11;75.94;100972.16;10474968;28;20095;-77
2021/09/01 18:48:02;;;;;;;9.98;9.18;;;;;;;17.00;76.87;100975.31;10472953;28;20045;-76
2021/09/01 18:53:04;;;;;;;9.95;9.25;;;;;;;16.90;76.90;100974.81;10473345;28;20065;-76
2021/09/01 18:58:06;;;;;;;10.98;9.93;;;;;;;16.74;78.23;100975.56;10456173;28;20041;-75
2021/09/01 19:03:10;;;;;;;10.77;9.98;;;;;;;16.61;78.83;100988.44;10455240;28;20053;-77
2021/09/01 19:08:18;;;;;;;11.88;10.70;;;;;;;16.74;78.83;100978.22;10444500;28;20041;-77
2021/09/01 19:13:21;;;;;;;10.13;9.32;;;;;;;16.60;79.28;100981.38;10438187;28;20091;-77
2021/09/01 19:18:22;;;;;;;10.48;9.68;;;;;;;16.56;79.09;100988.63;10436713;28;20046;-76
2021/09/01 19:23:24;;;;;;;11.07;10.18;;;;;;;16.55;79.07;100999.31;10428618;28;20419;-77
2021/09/01 19:28:27;;;;;;;11.50;10.55;;;;;;;16.35;79.96;101000.13;10426976;28;20041;-77
2021/09/01 19:33:30;;;;;;;9.63;9.02;;;;;;;16.13;80.86;101006.28;10426345;28;20095;-76
2021/09/01 19:38:32;;;;;;;10.55;9.80;;;;;;;15.96;81.43;101011.38;10428175;28;20171;-77
2021/09/01 19:43:34;;;;;;;11.07;10.18;;;;;;;15.87;82.00;101001.13;10437957;28;20041;-77
2021/09/01 19:48:37;;;;;;;11.77;10.80;;;;;;;15.76;82.86;101006.84;10449402;28;20044;-76
2021/09/01 19:53:40;;;;;;;11.30;10.50;;;;;;;15.59;83.29;101015.38;10450436;28;20494;-77
2021/09/01 19:58:42;;;;;;;12.02;10.95;;;;;;;15.62;83.77;101019.69;10467736;28;20049;-77
2021/09/01 20:03:43;;;;;;;11.20;10.40;;;;;;;15.79;82.99;101021.75;10465614;28;20045;-75
2021/09/01 20:08:47;;;;;;;11.27;10.27;;;;;;;15.29;84.53;101020.00;10448752;28;20045;-76
2021/09/01 20:13:49;;;;;;;12.38;11.43;;;;;;;15.08;85.70;101024.25;10450000;28;20053;-76
2021/09/01 20:18:53;;;;;;;12.57;11.63;;;;;;;15.13;85.71;101032.03;10466484;28;20098;-76
2021/09/01 20:23:55;;;;;;;12.35;11.52;;;;;;;15.10;85.28;101032.19;10465423;28;20053;-76
2021/09/01 20:28:57;;;;;;;11.82;10.82;;;;;;;15.23;84.42;101027.28;10464367;28;20045;-75
2021/09/01 20:33:59;;;;;;;12.75;11.73;;;;;;;15.06;84.51;101028.75;10465345;28;20461;-76
2021/09/01 20:39:02;;;;;;;11.68;10.77;;;;;;;15.02;83.99;101044.81;10464345;28;20075;-76
2021/09/01 20:44:07;;;;;;;11.82;10.73;;;;;;;14.71;85.34;101042.31;10445453;28;20052;-75
2021/09/01 20:49:12;;;;;;;11.18;10.38;;;;;;;14.56;86.16;101041.00;10447273;28;20471;-75
2021/09/01 20:54:13;;;;;;;12.20;11.30;;;;;;;14.56;86.13;101043.66;10464202;28;20060;-75
2021/09/01 20:59:16;;;;;;;12.18;11.27;;;;;;;14.39;86.67;101039.75;10445928;28;20044;-75
2021/09/01 21:04:19;;;;;;;13.95;12.73;;;;;;;14.52;87.04;101036.75;10463728;28;20051;-75
2021/09/01 21:09:21;;;;;;;12.20;11.38;;;;;;;14.30;87.24;101048.00;10462447;28;20037;-75
2021/09/01 21:14:23;;;;;;;12.52;11.50;;;;;;;14.26;87.67;101046.34;10463241;28;20045;-75
2021/09/01 21:19:39;;;;;;;13.68;12.57;;;;;;;14.28;87.71;101046.28;10462913;28;20140;-76
2021/09/01 21:24:44;;;;;;;;;;;;;;;14.27;88.09;101044.56;10463826;28;20040;-76
2021/09/01 21:29:52;;;;;;;13.05;12.05;;;;;;;14.16;88.01;101039.59;10463875;28;19932;-75
2021/09/01 21:34:54;;;;;;;14.57;12.90;;;;;;;13.99;88.90;101050.69;10462876;28;20068;-75
2021/09/01 21:39:57;;;;;;;13.40;12.10;;;;;;;14.02;88.85;101047.94;10461606;28;20516;-75
2021/09/01 21:45:00;;;;;;;14.32;13.23;;;;;;;13.78;89.44;101052.19;10462092;28;20099;-76
2021/09/01 21:50:04;;;;;;;13.70;12.50;;;;;;;13.66;89.85;101049.88;10439365;28;20120;-76
2021/09/01 21:55:06;;;;;;;13.43;12.27;;;;;;;13.59;90.13;101059.78;10453447;28;20040;-75
2021/09/01 22:00:12;;;;;;;15.90;14.70;;;;;;;13.53;90.60;101057.28;10461186;28;20049;-75
2021/09/01 22:05:14;;;;;;;15.13;13.93;;;;;;;13.49;90.94;101052.97;10460770;28;20041;-76
2021/09/01 22:10:16;;;;;;;16.75;15.35;;;;;;;13.45;91.00;101061.91;10461624;28;20402;-75
2021/09/01 22:15:17;;;;;;;14.52;13.40;;;;;;;13.47;91.02;101057.47;10426558;28;20083;-76
2021/09/01 22:20:19;;;;;;;15.15;14.05;;;;;;;13.38;90.98;101052.44;10443869;28;20049;-76
2021/09/01 22:25:20;;;;;;;15.68;14.38;;;;;;;13.32;91.41;101060.50;10443495;28;20052;-75
2021/09/01 22:30:22;;;;;;;14.63;13.63;;;;;;;13.23;91.35;101074.81;10442212;28;20037;-76
2021/09/01 22:35:26;;;;;;;14.75;13.75;;;;;;;13.17;91.68;101069.66;10460700;28;20510;-75
2021/09/01 22:40:28;;;;;;;14.77;13.63;;;;;;;13.12;91.74;101071.56;10459957;28;20442;-76
2021/09/01 22:45:30;;;;;;;14.80;13.70;;;;;;;13.11;91.76;101065.41;10442598;28;20128;-76
2021/09/01 22:50:32;;;;;;;15.30;13.98;;;;;;;13.07;92.11;101069.03;10460653;28;20109;-76
2021/09/01 22:55:34;;;;;;;16.23;14.75;;;;;;;12.97;92.44;101072.84;10442802;28;20076;-75
2021/09/01 23:00:36;;;;;;;16.92;15.38;;;;;;;12.92;92.36;101072.06;10459756;28;20045;-76
2021/09/01 23:05:39;;;;;;;15.65;14.25;;;;;;;12.94;92.14;101070.25;10457932;28;20076;-74